createdAt,value
2019-01-12T00:00:23.061Z,3.53
2019-01-12T00:05:25.529Z,3.48
2019-01-12T00:10:27.992Z,3.48
2019-01-12T00:15:30.453Z,3.53
2019-01-12T00:20:32.926Z,3.56
2019-01-12T00:25:35.400Z,3.61
2019-01-12T00:30:37.853Z,3.57
2019-01-12T00:35:40.303Z,3.55
2019-01-12T00:40:42.772Z,3.57
2019-01-12T00:45:45.235Z,3.53
2019-01-12T00:50:47.711Z,3.59
2019-01-12T00:55:50.172Z,3.61
2019-01-12T01:00:52.631Z,3.53
2019-01-12T01:05:55.094Z,3.61
2019-01-12T01:10:57.561Z,3.56
2019-01-12T01:16:00.016Z,3.61
2019-01-12T01:21:02.499Z,3.60
2019-01-12T01:26:04.971Z,3.62
2019-01-12T01:31:07.415Z,3.59
2019-01-12T01:36:09.870Z,3.67
2019-01-12T01:41:12.333Z,3.71
2019-01-12T01:46:14.803Z,3.69
2019-01-12T01:51:17.281Z,3.71
2019-01-12T01:56:19.736Z,3.65
2019-01-12T02:01:22.194Z,3.69
2019-01-12T02:06:24.715Z,3.76
2019-01-12T02:11:27.135Z,3.74
2019-01-12T02:16:29.594Z,3.75
2019-01-12T02:21:32.072Z,3.74
2019-01-12T02:26:34.557Z,3.74
2019-01-12T02:31:37.042Z,3.82
2019-01-12T02:36:39.552Z,3.84
2019-01-12T02:41:41.949Z,3.82
2019-01-12T02:46:44.407Z,3.76
2019-01-12T02:51:46.873Z,3.71
2019-01-12T02:56:49.344Z,3.84
2019-01-12T03:01:51.809Z,3.84
2019-01-12T03:06:54.277Z,3.80
2019-01-12T03:11:56.742Z,3.80
2019-01-12T03:16:59.279Z,3.77
2019-01-12T03:22:01.685Z,3.83
2019-01-12T03:27:04.147Z,3.82
2019-01-12T03:32:06.615Z,3.83
2019-01-12T03:37:09.059Z,3.90
2019-01-12T03:42:11.518Z,3.87
2019-01-12T03:47:13.995Z,3.92
2019-01-12T03:52:16.471Z,3.95
2019-01-12T03:57:18.935Z,3.97
2019-01-12T04:02:21.392Z,3.94
2019-01-12T04:07:23.854Z,3.89
2019-01-12T04:12:26.334Z,3.91
2019-01-12T04:17:28.835Z,3.90
2019-01-12T04:22:31.295Z,3.95
2019-01-12T04:27:33.735Z,3.92
2019-01-12T04:32:36.186Z,3.97
2019-01-12T04:37:38.650Z,3.97
2019-01-12T04:42:41.120Z,4.00
2019-01-12T04:47:43.586Z,3.97
2019-01-12T04:52:46.045Z,4.00
2019-01-12T04:57:48.506Z,4.02
2019-01-12T05:02:50.964Z,3.98
2019-01-12T05:07:53.422Z,3.98
2019-01-12T05:12:55.885Z,4.01
2019-01-12T05:17:58.338Z,4.01
2019-01-12T05:23:00.812Z,3.99
2019-01-12T05:28:03.266Z,4.02
2019-01-12T05:33:05.720Z,4.01
2019-01-12T05:38:08.191Z,4.03
2019-01-12T05:43:10.645Z,4.11
2019-01-12T05:48:13.118Z,4.10
2019-01-12T05:53:15.573Z,4.14
2019-01-12T05:58:18.051Z,4.07
2019-01-12T06:03:20.510Z,4.11
2019-01-12T06:08:22.974Z,4.17
2019-01-12T06:13:25.433Z,4.18
2019-01-12T06:18:27.912Z,4.20
2019-01-12T06:23:30.363Z,4.22
2019-01-12T06:28:32.895Z,4.28
2019-01-12T06:33:35.399Z,4.25
2019-01-12T06:38:37.897Z,4.29
2019-01-12T06:43:40.352Z,4.25
2019-01-12T06:48:42.852Z,4.30
2019-01-12T06:53:45.313Z,4.33
2019-01-12T06:58:47.764Z,4.26
2019-01-12T07:03:50.231Z,4.29
2019-01-12T07:08:52.709Z,4.26
2019-01-12T07:13:58.017Z,4.30
2019-01-12T07:19:00.415Z,4.32
2019-01-12T07:24:03.453Z,4.30
2019-01-12T07:29:05.939Z,4.37
2019-01-12T07:34:08.385Z,4.42
2019-01-12T07:39:10.866Z,4.48
2019-01-12T07:44:13.315Z,4.51
2019-01-12T07:49:15.784Z,4.56
2019-01-12T07:54:18.251Z,4.58
2019-01-12T07:59:20.708Z,4.62
2019-01-12T08:04:23.176Z,4.69
2019-01-12T08:09:25.639Z,4.72
2019-01-12T08:14:28.098Z,4.80
2019-01-12T08:19:30.563Z,4.88
2019-01-12T08:24:33.008Z,5.02
2019-01-12T08:29:35.454Z,5.07
2019-01-12T08:34:37.939Z,5.12
2019-01-12T08:39:40.397Z,5.14
2019-01-12T08:44:42.852Z,5.22
2019-01-12T08:49:45.314Z,5.28
2019-01-12T08:54:47.791Z,5.37
2019-01-12T08:59:50.246Z,5.35
2019-01-12T09:04:52.705Z,5.40
2019-01-12T09:09:55.174Z,5.40
2019-01-12T09:14:57.647Z,5.47
2019-01-12T09:20:00.155Z,5.54
2019-01-12T09:25:02.610Z,5.64
2019-01-12T09:30:13.858Z,5.73
2019-01-12T09:35:16.332Z,5.80
2019-01-12T09:40:18.942Z,5.91
2019-01-12T09:45:21.406Z,6.06
2019-01-12T09:50:23.863Z,6.23
2019-01-12T09:55:26.333Z,6.38
2019-01-12T10:00:28.799Z,6.45
2019-01-12T10:05:31.262Z,6.56
2019-01-12T10:10:33.723Z,6.40
2019-01-12T10:15:36.261Z,6.41
2019-01-12T10:20:38.757Z,6.38
2019-01-12T10:25:41.232Z,6.17
2019-01-12T10:30:43.698Z,6.18
2019-01-12T10:35:46.224Z,6.05
2019-01-12T10:40:48.686Z,5.97
2019-01-12T10:45:51.179Z,5.90
2019-01-12T10:50:53.608Z,5.82
2019-01-12T10:55:56.071Z,5.82
2019-01-12T11:00:58.550Z,5.74
2019-01-12T11:06:01.037Z,5.80
2019-01-12T11:11:03.513Z,6.05
2019-01-12T11:16:06.014Z,6.20
2019-01-12T11:21:08.476Z,6.42
2019-01-12T11:26:10.958Z,6.35
2019-01-12T11:31:19.624Z,6.33
2019-01-12T11:36:15.898Z,6.33
2019-01-12T11:41:18.357Z,6.11
2019-01-12T11:46:20.819Z,5.95
2019-01-12T11:51:23.284Z,5.94
2019-01-12T11:56:25.755Z,5.86
2019-01-12T12:01:28.262Z,5.81
2019-01-12T12:06:30.794Z,6.01
2019-01-12T12:11:33.258Z,6.16
2019-01-12T12:16:35.725Z,6.23
2019-01-12T12:21:38.185Z,6.23
2019-01-12T12:26:40.665Z,6.33
2019-01-12T12:31:43.143Z,6.35
2019-01-12T12:36:45.607Z,6.19
2019-01-12T12:41:48.095Z,6.12
2019-01-12T12:46:50.570Z,6.09
2019-01-12T12:51:53.028Z,6.08
2019-01-12T12:56:55.504Z,6.09
2019-01-12T13:01:57.959Z,6.08
2019-01-12T13:07:00.439Z,6.20
2019-01-12T13:12:02.918Z,6.45
2019-01-12T13:17:05.374Z,6.45
2019-01-12T13:22:07.879Z,6.50
2019-01-12T13:27:10.331Z,6.49
2019-01-12T13:32:12.793Z,6.42
2019-01-12T13:37:15.301Z,6.33
2019-01-12T13:42:17.777Z,6.24
2019-01-12T13:47:21.010Z,6.18
2019-01-12T13:52:22.760Z,6.15
2019-01-12T13:57:25.213Z,6.22
2019-01-12T14:02:27.676Z,6.39
2019-01-12T14:07:30.130Z,6.42
2019-01-12T14:12:32.604Z,6.43
2019-01-12T14:17:35.056Z,6.23
2019-01-12T14:22:37.540Z,6.12
2019-01-12T14:27:40.037Z,6.15
2019-01-12T14:32:42.502Z,6.13
2019-01-12T14:37:45.463Z,6.16
2019-01-12T14:42:49.759Z,6.05
2019-01-12T14:47:50.392Z,6.06
2019-01-12T14:52:52.890Z,6.01
2019-01-12T14:58:02.046Z,6.04
2019-01-12T15:02:57.909Z,6.04
2019-01-12T15:08:00.376Z,5.98
2019-01-12T15:13:02.868Z,5.98
2019-01-12T15:18:05.344Z,6.05
2019-01-12T15:23:07.835Z,6.02
2019-01-12T15:28:10.305Z,6.01
2019-01-12T15:33:14.242Z,6.03
2019-01-12T15:38:15.233Z,6.03
2019-01-12T15:43:17.697Z,6.01
2019-01-12T15:48:20.168Z,6.01
2019-01-12T15:53:22.638Z,5.97
2019-01-12T15:58:25.135Z,5.97
2019-01-12T16:03:27.606Z,6.03
2019-01-12T16:08:30.078Z,6.01
2019-01-12T16:13:32.542Z,6.03
2019-01-12T16:18:35.015Z,5.92
2019-01-12T16:23:37.478Z,5.93
2019-01-12T16:28:39.945Z,5.93
2019-01-12T16:33:42.655Z,5.86
2019-01-12T16:38:44.864Z,5.79
2019-01-12T16:43:47.332Z,5.83
2019-01-12T16:48:49.794Z,5.81
2019-01-12T16:53:52.275Z,5.82
2019-01-12T16:58:54.764Z,5.85
2019-01-12T17:03:57.228Z,5.83
2019-01-12T17:08:59.749Z,5.89
2019-01-12T17:14:02.212Z,5.86
2019-01-12T17:19:04.697Z,5.86
2019-01-12T17:24:07.155Z,5.84
2019-01-12T17:29:09.606Z,5.80
2019-01-12T17:34:12.068Z,5.81
2019-01-12T17:39:14.564Z,5.80
2019-01-12T17:44:17.051Z,5.80
2019-01-12T17:49:19.535Z,5.85
2019-01-12T17:54:21.998Z,5.85
2019-01-12T17:59:24.480Z,5.82
2019-01-12T18:04:26.970Z,5.79
2019-01-12T18:09:29.430Z,5.80
2019-01-12T18:14:31.900Z,5.83
2019-01-12T18:19:34.436Z,5.83
2019-01-12T18:24:36.877Z,5.83
2019-01-12T18:29:39.364Z,5.82
2019-01-12T18:34:41.840Z,5.83
2019-01-12T18:39:44.336Z,5.82
2019-01-12T18:44:46.751Z,5.82
2019-01-12T18:49:49.216Z,5.82
2019-01-12T18:54:51.683Z,5.84
2019-01-12T18:59:54.130Z,5.83
2019-01-12T19:04:56.628Z,5.84
2019-01-12T19:09:59.102Z,5.83
2019-01-12T19:15:01.575Z,5.86
2019-01-12T19:20:04.015Z,5.88
2019-01-12T19:25:06.477Z,5.89
2019-01-12T19:30:08.949Z,5.90
2019-01-12T19:35:11.402Z,5.88
2019-01-12T19:40:13.856Z,5.88
2019-01-12T19:45:16.330Z,5.86
2019-01-12T19:50:18.815Z,5.86
2019-01-12T19:55:21.298Z,5.87
2019-01-12T20:00:23.773Z,5.88
2019-01-12T20:05:26.222Z,5.88
2019-01-12T20:10:28.688Z,5.88
2019-01-12T20:15:31.162Z,5.89
2019-01-12T20:20:33.662Z,5.88
2019-01-12T20:25:36.129Z,5.88
2019-01-12T20:30:41.293Z,5.87
2019-01-12T20:36:02.056Z,5.88
2019-01-12T20:41:10.140Z,5.87
2019-01-12T20:46:18.774Z,5.87
2019-01-12T20:51:43.026Z,5.91
2019-01-12T20:56:54.306Z,5.91
2019-01-12T21:02:05.563Z,5.92
2019-01-12T21:07:35.711Z,5.96
2019-01-12T21:12:58.968Z,5.97
2019-01-12T21:18:01.443Z,6.00
2019-01-12T21:23:03.949Z,6.00
2019-01-12T21:28:06.486Z,6.00
2019-01-12T21:33:08.943Z,6.00
2019-01-12T21:38:11.422Z,6.04
2019-01-12T21:43:13.881Z,6.04
2019-01-12T21:48:16.358Z,6.09
2019-01-12T21:53:18.820Z,6.11
2019-01-12T21:58:21.301Z,6.21
2019-01-12T22:03:23.788Z,6.21
2019-01-12T22:08:26.248Z,6.23
2019-01-12T22:13:28.715Z,6.27
2019-01-12T22:18:31.209Z,6.28
2019-01-12T22:23:33.684Z,6.31
2019-01-12T22:28:36.162Z,6.28
2019-01-12T22:33:38.656Z,6.34
2019-01-12T22:38:41.140Z,6.33
2019-01-12T22:43:43.646Z,6.34
2019-01-12T22:48:46.126Z,6.35
2019-01-12T22:53:48.589Z,6.35
2019-01-12T22:58:51.055Z,6.35
2019-01-12T23:03:53.613Z,6.37
2019-01-12T23:08:56.079Z,6.38
2019-01-12T23:13:58.551Z,6.33
2019-01-12T23:19:01.029Z,6.33
2019-01-12T23:24:03.513Z,6.33
2019-01-12T23:29:05.977Z,6.36
2019-01-12T23:34:08.561Z,6.38
2019-01-12T23:39:11.027Z,6.40
2019-01-12T23:44:15.061Z,6.41
2019-01-12T23:49:15.974Z,6.39
2019-01-12T23:54:18.428Z,6.42
2019-01-12T23:59:20.900Z,6.41
